Time;durP1;ratioP1;P1;durP2;ratioP2;P2;SDS_P1;SDS_P2;PMS_P1;PMS_P2;Temp;Humidity;BMP_temperature;BMP_pressure;BME280_temperature;BME280_humidity;BME280_pressure;Samples;Min_cycle;Max_cycle;Signal;HPM_P1;HPM_P2
2022/12/31 00:01:57;;;;;;;;;3.00;1.33;;;;;25.88;40.21;100597.38;4962297;28;45476;-71
2022/12/31 00:04:22;;;;;;;;;3.67;2.33;;;;;25.87;39.92;100590.25;4962031;28;49034;-70
2022/12/31 00:06:48;;;;;;;;;1.00;1.00;;;;;25.87;39.94;100612.81;4993812;28;47301;-69
2022/12/31 00:09:13;;;;;;;;;1.00;1.00;;;;;25.86;40.03;100604.84;4962682;28;45428;-68
2022/12/31 00:11:39;;;;;;;;;3.00;2.00;;;;;25.86;40.34;100610.28;4956348;28;47015;-68
2022/12/31 00:14:05;;;;;;;;;2.67;2.00;;;;;25.81;40.30;100583.69;4965412;28;46511;-69
2022/12/31 00:16:35;;;;;;;;;3.00;3.00;;;;;25.82;39.91;100606.28;4966130;28;45490;-69
2022/12/31 00:19:00;;;;;;;;;3.00;3.00;;;;;25.81;40.19;100610.00;4970146;28;45767;-68
2022/12/31 00:21:29;;;;;;;;;2.00;2.00;;;;;25.78;40.05;100627.53;4969779;28;46919;-69
2022/12/31 00:23:54;;;;;;;;;2.67;2.00;;;;;25.75;40.23;100601.56;4969264;28;45791;-69
2022/12/31 00:26:23;;;;;;;;;4.00;2.00;;;;;25.71;39.68;100611.13;4972417;28;45665;-69
2022/12/31 00:28:49;;;;;;;;;2.00;2.00;;;;;25.69;40.19;100623.22;4969226;28;45507;-69
2022/12/31 00:31:21;;;;;;;;;1.00;1.00;;;;;25.64;39.93;100621.94;4962952;28;45472;-68
2022/12/31 00:33:46;;;;;;;;;3.67;2.67;;;;;25.61;39.86;100640.44;4963873;28;46106;-69
2022/12/31 00:36:13;;;;;;;;;2.00;1.00;;;;;25.60;39.61;100644.19;4972086;28;45819;-68
2022/12/31 00:38:40;;;;;;;;;3.33;1.00;;;;;25.57;39.68;100634.56;4970228;28;45400;-69
2022/12/31 00:41:06;;;;;;;;;3.33;1.00;;;;;25.47;39.65;100628.50;4964998;28;45468;-69
2022/12/31 00:43:32;;;;;;;;;0.33;0.33;;;;;25.52;40.25;100643.25;4967756;28;46719;-68
2022/12/31 00:45:58;;;;;;;;;1.67;1.67;;;;;25.47;40.15;100628.50;4971257;28;45438;-69
2022/12/31 00:48:23;;;;;;;;;1.00;1.00;;;;;25.45;40.46;100645.00;4982617;28;45438;-69
2022/12/31 00:50:48;;;;;;;;;2.00;1.00;;;;;25.43;40.24;100640.78;4971000;28;45557;-68
2022/12/31 00:53:15;;;;;;;;;2.00;2.00;;;;;25.46;40.09;100659.44;4967697;28;46525;-68
2022/12/31 00:55:40;;;;;;;;;1.67;1.67;;;;;25.44;40.38;100653.31;4971428;28;45435;-68
2022/12/31 00:58:06;;;;;;;;;3.00;3.00;;;;;25.38;40.32;100646.78;4970093;28;46867;-68
2022/12/31 01:00:31;;;;;;;;;4.00;2.00;;;;;25.35;39.69;100645.25;4974568;28;45496;-69
2022/12/31 01:02:56;;;;;;;;;3.00;1.33;;;;;25.33;40.27;100646.44;4968250;28;52451;-68
2022/12/31 01:05:22;;;;;;;;;1.00;1.00;;;;;25.33;40.10;100652.72;4967220;28;45477;-69
2022/12/31 01:07:47;;;;;;;;;1.00;1.00;;;;;25.34;39.69;100662.56;4959456;28;45474;-69
2022/12/31 01:11:17;;;;;;;;;3.00;1.00;;;;;25.30;39.88;100652.25;4968777;28;46389;-68
2022/12/31 01:12:58;;;;;;;;;1.00;1.00;;;;;25.27;40.06;100665.16;4966402;28;45496;-69
2022/12/31 01:15:24;;;;;;;;;2.00;1.00;;;;;25.27;39.90;100664.34;4974667;28;45488;-69
2022/12/31 01:17:49;;;;;;;;;1.00;1.00;;;;;25.27;39.92;100667.06;4971020;28;45330;-69
2022/12/31 01:20:14;;;;;;;;;1.33;1.33;;;;;25.26;39.91;100665.38;4968869;28;45435;-68
2022/12/31 01:22:40;;;;;;;;;1.33;1.33;;;;;25.24;39.85;100662.84;4973182;28;45523;-69
2022/12/31 01:25:05;;;;;;;;;1.00;1.00;;;;;25.23;39.80;100680.16;4972476;28;48361;-69
2022/12/31 01:27:31;;;;;;;;;1.67;0.67;;;;;25.18;39.75;100668.16;4993438;27;45482;-68
2022/12/31 01:29:56;;;;;;;;;0.67;0.67;;;;;25.16;39.79;100667.47;4969846;28;45401;-69
2022/12/31 01:32:21;;;;;;;;;1.00;1.00;;;;;25.16;39.84;100683.75;4967604;28;49988;-69
2022/12/31 01:34:47;;;;;;;;;1.33;1.33;;;;;25.16;39.87;100691.91;4967686;28;45424;-68
2022/12/31 01:37:12;;;;;;;;;1.00;1.00;;;;;25.14;39.74;100689.41;4979432;28;45509;-68
2022/12/31 01:39:37;;;;;;;;;1.00;1.00;;;;;25.10;39.87;100682.63;4966112;28;45612;-68
2022/12/31 01:42:02;;;;;;;;;1.00;1.00;;;;;25.06;39.85;100681.28;4966720;28;56424;-68
2022/12/31 01:44:28;;;;;;;;;2.00;2.00;;;;;25.11;39.84;100678.88;4977217;28;45422;-68
2022/12/31 01:47:02;;;;;;;;;1.33;1.33;;;;;25.02;39.98;100666.38;4966164;28;45388;-68
2022/12/31 01:49:43;;;;;;;;;1.00;1.00;;;;;25.11;40.46;100689.75;4969365;28;45388;-68
2022/12/31 01:52:11;;;;;;;;;1.00;1.00;;;;;25.11;39.77;100687.03;4967554;28;46322;-68
2022/12/31 01:54:42;;;;;;;;;1.33;1.33;;;;;25.09;40.04;100678.22;4964332;28;45433;-69
2022/12/31 01:57:09;;;;;;;;;0.67;0.67;;;;;25.02;39.84;100677.25;4988322;27;45384;-69
2022/12/31 01:59:35;;;;;;;;;1.00;1.00;;;;;25.06;39.54;100684.00;4975941;28;45558;-68
2022/12/31 02:02:01;;;;;;;;;1.33;1.33;;;;;25.05;39.69;100677.72;4965349;28;45476;-68
2022/12/31 02:04:28;;;;;;;;;3.67;2.00;;;;;25.05;39.76;100699.44;4968122;28;45547;-69
2022/12/31 02:06:58;;;;;;;;;1.00;1.00;;;;;25.02;39.77;100686.25;4966637;28;45873;-69
2022/12/31 02:09:24;;;;;;;;;1.00;0.00;;;;;25.03;39.87;100695.22;4975794;28;45377;-68
2022/12/31 02:11:49;;;;;;;;;1.00;1.00;;;;;24.98;39.54;100698.50;4973605;28;46048;-69
2022/12/31 02:14:20;;;;;;;;;0.67;0.67;;;;;25.02;39.87;100712.53;4961637;28;47776;-68
2022/12/31 02:17:04;;;;;;;;;1.00;1.00;;;;;25.02;39.84;100723.41;4974123;28;45404;-68
2022/12/31 02:20:00;;;;;;;;;0.67;0.67;;;;;24.99;39.65;100702.88;5017954;28;45436;-69
2022/12/31 02:22:50;;;;;;;;;1.00;1.00;;;;;24.98;40.00;100698.50;4968664;28;45375;-69
2022/12/31 02:25:46;;;;;;;;;2.00;1.33;;;;;24.93;39.60;100707.16;4967997;28;45545;-69
2022/12/31 02:28:40;;;;;;;;;1.00;1.00;;;;;24.94;39.53;100695.31;4966590;28;45747;-68
2022/12/31 02:31:20;;;;;;;;;1.00;1.00;;;;;24.92;39.83;100700.03;4973509;28;45697;-69
2022/12/31 02:33:55;;;;;;;;;1.00;1.00;;;;;24.85;39.48;100696.38;4969278;28;45464;-69
2022/12/31 02:36:26;;;;;;;;;1.00;1.00;;;;;24.93;39.59;100715.31;4975773;28;45600;-68
2022/12/31 02:38:53;;;;;;;;;1.00;1.00;;;;;24.90;39.66;100723.81;4960024;28;45512;-68
2022/12/31 02:44:28;;;;;;;;;1.00;1.00;;;;;24.92;39.72;100732.63;4971918;28;45485;-68
2022/12/31 02:47:09;;;;;;;;;2.00;1.00;;;;;24.93;39.73;100728.06;4977290;28;45432;-68
2022/12/31 02:49:59;;;;;;;;;1.00;1.00;;;;;24.92;39.73;100729.06;4973108;28;45305;-68
2022/12/31 02:52:49;;;;;;;;;0.67;0.67;;;;;24.90;39.65;100726.53;4973225;28;45398;-68
2022/12/31 02:55:48;;;;;;;;;0.67;0.67;;;;;24.90;39.66;100731.97;4971158;28;46188;-68
2022/12/31 03:04:31;;;;;;;;;1.33;0.00;;;;;24.88;39.64;100733.16;4979238;28;45444;-69
2022/12/31 03:07:00;;;;;;;;;0.00;0.00;;;;;24.76;39.67;100725.38;4979502;28;46152;-68
2022/12/31 03:09:25;;;;;;;;;1.00;0.00;;;;;24.84;39.51;100744.38;4978840;28;45438;-68
2022/12/31 03:14:34;;;;;;;;;2.00;2.00;;;;;24.81;39.73;100733.00;4982099;28;45427;-68
2022/12/31 03:16:59;;;;;;;;;0.00;0.00;;;;;24.82;39.86;100731.97;4968744;28;51699;-68
2022/12/31 03:22:29;;;;;;;;;1.00;0.00;;;;;24.78;39.60;100745.06;4970550;28;45341;-67
2022/12/31 03:27:46;;;;;;;;;0.00;0.00;;;;;24.78;39.57;100741.50;4969958;28;45413;-69
2022/12/31 03:30:15;;;;;;;;;1.00;1.00;;;;;24.76;39.63;100752.50;4969108;28;45611;-68
2022/12/31 03:32:40;;;;;;;;;0.00;0.00;;;;;24.77;39.86;100758.81;4970106;28;45511;-68
2022/12/31 03:35:06;;;;;;;;;0.00;0.00;;;;;24.74;39.52;100760.00;4950386;28;45547;-68
2022/12/31 03:37:32;;;;;;;;;0.00;0.00;;;;;24.73;39.61;100764.56;4970570;28;47614;-68
2022/12/31 03:39:57;;;;;;;;;1.00;1.00;;;;;24.68;39.69;100753.41;4977243;28;45399;-68
2022/12/31 03:42:22;;;;;;;;;1.00;1.00;;;;;24.72;39.64;100743.88;4972785;28;45721;-69
2022/12/31 03:44:48;;;;;;;;;1.00;1.00;;;;;24.73;39.69;100755.59;5015864;28;45926;-68
2022/12/31 03:47:13;;;;;;;;;0.67;0.67;;;;;24.73;39.47;100753.72;4971140;28;45654;-68
2022/12/31 03:49:38;;;;;;;;;0.00;0.00;;;;;24.71;39.41;100753.06;4970437;28;49506;-68
2022/12/31 03:52:05;;;;;;;;;2.33;1.00;;;;;24.68;39.56;100733.56;4979947;28;45431;-69
2022/12/31 03:54:31;;;;;;;;;1.00;1.00;;;;;24.72;39.43;100748.47;4970316;28;45593;-68
2022/12/31 03:56:56;;;;;;;;;0.67;0.00;;;;;24.68;40.02;100753.41;4964707;28;45320;-68
2022/12/31 03:59:21;;;;;;;;;1.00;1.00;;;;;24.70;39.59;100764.94;4972325;28;45340;-68
2022/12/31 04:01:46;;;;;;;;;3.33;1.67;;;;;24.70;39.59;100764.09;4972270;28;45437;-68
2022/12/31 04:04:12;;;;;;;;;2.00;0.00;;;;;24.65;39.60;100764.63;4971640;28;45471;-68
2022/12/31 04:06:37;;;;;;;;;0.00;0.00;;;;;24.68;39.34;100758.00;4971712;28;53451;-68
2022/12/31 04:09:02;;;;;;;;;1.00;1.00;;;;;24.64;39.67;100759.38;4971112;28;45526;-68
2022/12/31 04:11:28;;;;;;;;;2.00;0.00;;;;;24.65;39.40;100751.06;4970644;28;45520;-68
2022/12/31 04:13:53;;;;;;;;;1.00;0.33;;;;;24.64;39.53;100745.81;4963902;28;46832;-68
2022/12/31 04:16:18;;;;;;;;;0.00;0.00;;;;;24.63;39.77;100744.09;4974318;28;52629;-68
2022/12/31 04:18:43;;;;;;;;;0.67;0.67;;;;;24.61;39.42;100728.00;4972325;28;45392;-68
2022/12/31 04:21:09;;;;;;;;;0.67;0.67;;;;;24.68;39.73;100758.81;4971893;28;45369;-68
2022/12/31 04:23:34;;;;;;;;;1.00;1.00;;;;;24.70;39.57;100754.09;4967341;28;45449;-67
2022/12/31 04:25:59;;;;;;;;;1.00;1.00;;;;;24.70;39.56;100750.50;4964914;28;46040;-68
2022/12/31 04:28:25;;;;;;;;;2.00;0.00;;;;;24.69;39.74;100746.13;4976113;28;45918;-68
2022/12/31 04:30:50;;;;;;;;;0.00;0.00;;;;;24.64;39.82;100738.50;4964373;28;45478;-68
2022/12/31 04:33:15;;;;;;;;;1.00;1.00;;;;;24.68;39.59;100730.88;4968928;28;45756;-68
2022/12/31 04:35:41;;;;;;;;;1.00;1.00;;;;;24.65;39.68;100747.50;4971264;28;47231;-67
2022/12/31 04:38:06;;;;;;;;;0.00;0.00;;;;;24.65;39.54;100761.91;5013101;28;45538;-68
2022/12/31 04:40:31;;;;;;;;;0.00;0.00;;;;;24.63;39.46;100746.81;4971563;28;45388;-68
2022/12/31 04:42:56;;;;;;;;;1.33;0.00;;;;;24.61;39.48;100753.25;4971447;28;47012;-68
2022/12/31 04:45:22;;;;;;;;;0.00;0.00;;;;;24.62;39.41;100751.41;4972492;28;46742;-68
2022/12/31 04:47:47;;;;;;;;;1.00;1.00;;;;;24.61;39.27;100755.16;4992617;28;45490;-68
2022/12/31 04:50:12;;;;;;;;;1.00;1.00;;;;;24.61;39.60;100757.84;5007889;27;45948;-68
2022/12/31 04:52:38;;;;;;;;;0.00;0.00;;;;;24.58;39.63;100756.34;4974640;28;46382;-68
2022/12/31 04:55:03;;;;;;;;;0.00;0.00;;;;;24.57;39.50;100742.94;4973953;28;46200;-68
2022/12/31 04:57:29;;;;;;;;;1.00;1.00;;;;;24.57;39.54;100748.38;5022829;28;45429;-68
2022/12/31 04:59:54;;;;;;;;;1.00;0.67;;;;;24.55;39.51;100748.53;4972305;28;45389;-68
2022/12/31 05:02:19;;;;;;;;;0.00;0.00;;;;;24.52;39.55;100735.31;4967496;28;45426;-68
2022/12/31 05:04:44;;;;;;;;;0.00;0.00;;;;;24.56;39.40;100755.66;4973889;28;45876;-68
2022/12/31 05:07:10;;;;;;;;;1.00;1.00;;;;;24.53;39.17;100763.31;4974335;28;45310;-68
2022/12/31 05:09:35;;;;;;;;;0.00;0.00;;;;;24.55;39.38;100781.09;4967895;28;45278;-68
2022/12/31 05:12:00;;;;;;;;;0.00;0.00;;;;;24.55;39.44;100786.53;4971654;28;45478;-68
2022/12/31 05:14:26;;;;;;;;;0.00;0.00;;;;;24.57;39.14;100783.66;4957646;28;54430;-68
2022/12/31 05:16:51;;;;;;;;;0.00;0.00;;;;;24.58;39.51;100782.63;4960313;28;47342;-68
2022/12/31 05:19:16;;;;;;;;;1.00;1.00;;;;;24.61;39.48;100788.53;4973600;28;45745;-68
2022/12/31 05:21:42;;;;;;;;;0.00;0.00;;;;;24.55;39.54;100767.53;4974388;28;45397;-68
2022/12/31 05:24:08;;;;;;;;;0.00;0.00;;;;;24.64;39.54;100787.34;4973720;28;46275;-68
2022/12/31 05:26:33;;;;;;;;;0.00;0.00;;;;;24.64;39.73;100787.34;4973907;28;45410;-68
2022/12/31 05:28:59;;;;;;;;;0.00;0.00;;;;;24.70;39.35;100802.09;4974703;28;45366;-68
2022/12/31 05:31:25;;;;;;;;;1.00;0.00;;;;;24.70;39.28;100791.22;4966344;28;45464;-68
2022/12/31 05:33:51;;;;;;;;;0.00;0.00;;;;;24.65;39.48;100771.91;4969767;28;46240;-68
2022/12/31 05:36:16;;;;;;;;;0.00;0.00;;;;;24.73;39.27;100789.00;4973150;28;45557;-68
2022/12/31 05:38:42;;;;;;;;;0.00;0.00;;;;;24.78;39.44;100799.34;4975195;28;45512;-68
2022/12/31 05:41:07;;;;;;;;;0.00;0.00;;;;;24.81;39.72;100801.69;4973660;28;45495;-68
2022/12/31 05:43:33;;;;;;;;;0.00;0.00;;;;;24.82;39.34;100794.41;4973927;28;45380;-68
2022/12/31 05:46:03;;;;;;;;;0.00;0.00;;;;;24.86;39.46;100793.06;4971588;28;45414;-68
2022/12/31 05:48:29;;;;;;;;;0.00;0.00;;;;;24.86;39.34;100790.34;4973695;28;45605;-68
2022/12/31 05:50:54;;;;;;;;;0.00;0.00;;;;;24.92;39.45;100810.50;4972622;28;45471;-68
2022/12/31 05:53:19;;;;;;;;;1.00;1.00;;;;;24.94;39.30;100811.19;4973702;28;45396;-68
2022/12/31 05:55:46;;;;;;;;;0.00;0.00;;;;;24.96;39.31;100812.69;4970638;28;45447;-69
2022/12/31 05:58:13;;;;;;;;;0.00;0.00;;;;;24.95;39.00;100805.59;4973260;28;45387;-69
2022/12/31 06:00:39;;;;;;;;;0.00;0.00;;;;;24.97;39.48;100810.84;4972838;28;45990;-70
2022/12/31 06:03:04;;;;;;;;;0.33;0.33;;;;;25.00;39.27;100819.47;4972865;28;45993;-70
2022/12/31 06:05:29;;;;;;;;;0.33;0.33;;;;;24.98;39.33;100817.94;4964807;28;45258;-69
2022/12/31 06:07:54;;;;;;;;;0.00;0.00;;;;;24.98;39.49;100804.38;4970194;28;45301;-69
2022/12/31 06:10:20;;;;;;;;;0.00;0.00;;;;;25.00;39.11;100815.91;4975997;28;45455;-70
2022/12/31 06:12:45;;;;;;;;;0.00;0.00;;;;;24.96;39.33;100809.97;4960542;28;49177;-69
2022/12/31 06:15:10;;;;;;;;;0.00;0.00;;;;;24.96;39.24;100807.25;4966753;28;45471;-69
2022/12/31 06:17:36;;;;;;;;;0.00;0.00;;;;;24.97;39.35;100819.00;4983924;28;45722;-69
2022/12/31 06:20:01;;;;;;;;;0.00;0.00;;;;;24.98;38.93;100810.63;4962021;28;45409;-69
2022/12/31 06:22:26;;;;;;;;;1.67;0.00;;;;;25.00;39.13;100822.19;4989491;28;46534;-69
2022/12/31 06:24:52;;;;;;;;;0.00;0.00;;;;;24.92;38.96;100819.50;4982679;28;45562;-69
2022/12/31 06:27:17;;;;;;;;;0.00;0.00;;;;;24.91;39.32;100816.94;4986303;28;45558;-69
2022/12/31 06:29:44;;;;;;;;;0.00;0.00;;;;;24.96;39.01;100829.00;4966674;28;45995;-69
2022/12/31 06:32:10;;;;;;;;;1.00;1.00;;;;;24.94;39.04;100844.63;4966518;28;45451;-69
2022/12/31 06:34:35;;;;;;;;;1.00;0.00;;;;;24.93;39.01;100837.47;4976968;28;45496;-69
2022/12/31 06:37:00;;;;;;;;;0.33;0.33;;;;;24.95;38.99;100845.44;5018226;28;45607;-68
2022/12/31 06:39:26;;;;;;;;;0.00;0.00;;;;;24.92;38.74;100845.78;4991788;27;45737;-69
2022/12/31 06:41:51;;;;;;;;;0.67;0.33;;;;;24.92;38.93;100843.06;4973259;28;46603;-69
2022/12/31 06:44:16;;;;;;;;;0.00;0.00;;;;;24.92;39.02;100838.50;4973092;28;45390;-69
2022/12/31 06:46:42;;;;;;;;;0.33;0.33;;;;;24.91;38.90;100841.38;4973584;28;45476;-69
2022/12/31 06:49:07;;;;;;;;;0.00;0.00;;;;;24.91;39.30;100839.53;4972993;28;45599;-69
2022/12/31 06:51:32;;;;;;;;;2.00;0.00;;;;;24.93;39.02;100842.91;4973746;28;45747;-69
2022/12/31 06:53:58;;;;;;;;;0.00;0.00;;;;;24.89;39.09;100846.97;4972846;28;45680;-69
2022/12/31 06:56:27;;;;;;;;;0.00;0.00;;;;;24.90;38.88;100842.41;4968500;28;45396;-69
2022/12/31 06:58:53;;;;;;;;;0.67;0.67;;;;;24.89;39.20;100852.41;4968477;28;45510;-69
2022/12/31 07:01:27;;;;;;;;;1.00;1.00;;;;;24.88;39.11;100856.16;4968347;28;46499;-69
2022/12/31 07:04:07;;;;;;;;;0.33;0.33;;;;;24.87;39.08;100873.47;4972457;28;45711;-69
2022/12/31 07:07:05;;;;;;;;;0.00;0.00;;;;;24.83;39.15;100875.69;4972665;28;45451;-69
2022/12/31 07:09:44;;;;;;;;;0.00;0.00;;;;;24.83;38.83;100872.97;4966084;28;45344;-69
2022/12/31 07:12:21;;;;;;;;;0.00;0.00;;;;;24.83;39.13;100881.13;4968588;28;46238;-69
2022/12/31 07:15:00;;;;;;;;;1.00;1.00;;;;;24.82;39.06;100864.97;4969239;28;45532;-69
2022/12/31 07:17:43;;;;;;;;;0.33;0.33;;;;;24.80;38.75;100862.44;4971978;28;45507;-69
2022/12/31 07:20:17;;;;;;;;;0.00;0.00;;;;;24.82;39.03;100862.25;4975489;28;45830;-70
2022/12/31 07:22:44;;;;;;;;;0.00;0.00;;;;;24.79;39.01;100863.47;4970671;28;45481;-69
2022/12/31 07:25:13;;;;;;;;;0.67;0.00;;;;;24.78;39.29;100859.06;4971342;28;45414;-69
2022/12/31 07:28:10;;;;;;;;;0.00;0.00;;;;;24.78;38.94;100850.06;4961144;28;45549;-69
2022/12/31 07:30:46;;;;;;;;;0.00;0.00;;;;;24.78;39.05;100856.34;4972158;28;45451;-69
2022/12/31 07:33:24;;;;;;;;;0.00;0.00;;;;;24.79;39.24;100868.88;4970141;28;45624;-70
2022/12/31 07:36:03;;;;;;;;;0.00;0.00;;;;;24.77;39.12;100867.38;4963653;28;45372;-70
2022/12/31 07:38:46;;;;;;;;;0.00;0.00;;;;;24.74;39.34;100872.09;4968129;28;45467;-70
2022/12/31 07:41:21;;;;;;;;;0.00;0.00;;;;;24.79;39.25;100892.47;4973885;28;45633;-69
2022/12/31 07:44:07;;;;;;;;;1.00;1.00;;;;;24.79;38.94;100896.03;4970802;28;46304;-69
2022/12/31 07:46:55;;;;;;;;;0.00;0.00;;;;;24.84;38.97;100892.81;4960486;28;45451;-69
2022/12/31 07:49:23;;;;;;;;;0.00;0.00;;;;;24.87;38.83;100897.91;4966427;28;45469;-70
2022/12/31 07:51:49;;;;;;;;;0.00;0.00;;;;;24.88;39.00;100906.91;4975502;28;45388;-70
2022/12/31 07:54:14;;;;;;;;;1.00;1.00;;;;;24.91;39.25;100912.84;4972065;28;47436;-69
2022/12/31 07:56:40;;;;;;;;;0.00;0.00;;;;;24.91;38.98;100920.97;4966220;28;45704;-69
2022/12/31 07:59:30;;;;;;;;;0.00;0.00;;;;;24.91;38.84;100920.97;4971439;28;45501;-70
2022/12/31 08:02:24;;;;;;;;;1.00;1.00;;;;;24.88;39.05;100932.16;4971844;28;45412;-69
2022/12/31 08:05:20;;;;;;;;;1.00;1.00;;;;;24.88;38.79;100940.31;4964127;28;46214;-68
2022/12/31 08:07:49;;;;;;;;;0.00;0.00;;;;;24.86;39.07;100955.94;4971200;28;45517;-68
2022/12/31 08:10:26;;;;;;;;;0.00;0.00;;;;;24.84;38.93;100956.09;4967014;28;45568;-68
2022/12/31 08:12:59;;;;;;;;;1.00;0.00;;;;;24.83;38.78;100959.84;4962687;28;46597;-68
2022/12/31 08:15:24;;;;;;;;;0.00;0.00;;;;;24.75;38.87;100938.09;4969459;28;47545;-68
2022/12/31 08:17:50;;;;;;;;;1.33;0.33;;;;;24.80;38.80;100946.59;4975296;28;45362;-69
2022/12/31 08:20:18;;;;;;;;;1.00;1.00;;;;;24.74;38.79;100939.97;4974761;28;45282;-68
2022/12/31 08:22:55;;;;;;;;;2.67;1.00;;;;;24.78;38.72;100939.63;4964745;28;45477;-68
2022/12/31 08:25:41;;;;;;;;;0.00;0.00;;;;;24.74;39.24;100936.41;4970017;28;45502;-68
2022/12/31 08:28:09;;;;;;;;;0.00;0.00;;;;;24.73;38.93;100946.41;4966798;28;45607;-68
2022/12/31 08:30:53;;;;;;;;;0.00;0.00;;;;;24.72;39.04;100941.16;4973817;28;45509;-68
2022/12/31 08:33:37;;;;;;;;;0.00;0.00;;;;;24.69;38.36;100936.91;4972831;28;45545;-68
2022/12/31 08:36:14;;;;;;;;;0.00;0.00;;;;;24.70;39.00;100944.06;4991529;27;47320;-69
2022/12/31 08:39:16;;;;;;;;;0.67;0.00;;;;;24.68;39.01;100943.38;4959761;28;45527;-69
2022/12/31 08:41:48;;;;;;;;;1.00;1.00;;;;;24.68;38.77;100942.53;4973746;28;45495;-68
2022/12/31 08:44:13;;;;;;;;;0.00;0.00;;;;;24.69;38.96;100946.94;4973365;28;45498;-68
2022/12/31 08:46:53;;;;;;;;;1.00;1.00;;;;;24.69;38.99;100941.53;4977230;28;46559;-67
2022/12/31 08:49:18;;;;;;;;;1.00;1.00;;;;;24.70;39.30;100946.78;4972475;28;45496;-68
2022/12/31 08:51:44;;;;;;;;;1.00;1.00;;;;;24.66;38.75;100936.41;4971813;28;45695;-70
2022/12/31 08:54:11;;;;;;;;;1.00;1.00;;;;;24.70;39.06;100956.78;4967554;28;46956;-72
2022/12/31 08:56:56;;;;;;;;;10.33;3.67;;;;;24.61;38.89;100951.34;4967697;28;45490;-70
2022/12/31 08:59:40;;;;;;;;;7.67;4.33;;;;;24.68;39.00;100978.66;4972353;28;45410;-69
2022/12/31 09:02:05;;;;;;;;;4.33;4.33;;;;;24.66;39.43;100967.13;4963710;28;45690;-71
2022/12/31 09:04:45;;;;;;;;;2.67;2.67;;;;;24.63;38.96;100969.31;4963117;28;45366;-71
2022/12/31 09:07:12;;;;;;;;;5.00;3.00;;;;;24.57;39.00;100970.88;4960452;28;47067;-71
2022/12/31 09:09:38;;;;;;;;;4.33;2.67;;;;;24.56;38.98;100969.19;4973088;28;45404;-71
2022/12/31 09:12:33;;;;;;;;;2.33;2.33;;;;;24.49;38.85;100960.88;4973852;28;45399;-71
2022/12/31 09:15:16;;;;;;;;;2.00;2.00;;;;;24.47;39.14;100955.59;4972397;28;45437;-72
2022/12/31 09:17:48;;;;;;;;;2.67;2.67;;;;;24.48;39.11;100964.56;4967790;28;45989;-71
2022/12/31 09:20:33;;;;;;;;;4.00;3.00;;;;;24.48;39.25;100959.16;4974262;28;45305;-71
2022/12/31 09:23:01;;;;;;;;;3.00;3.00;;;;;24.44;39.36;100974.09;4973228;27;45430;-72
2022/12/31 09:25:27;;;;;;;;;2.00;2.00;;;;;24.44;39.12;100979.53;4974537;28;45385;-72
2022/12/31 09:28:04;;;;;;;;;2.00;1.67;;;;;24.43;39.20;100986.81;4962204;28;45948;-71
2022/12/31 09:30:38;;;;;;;;;2.00;2.00;;;;;24.41;38.92;100971.72;4973964;28;45436;-72
2022/12/31 09:33:10;;;;;;;;;3.00;3.00;;;;;24.30;39.05;100953.91;4971988;28;45409;-71
2022/12/31 09:35:39;;;;;;;;;5.00;4.00;;;;;24.36;39.34;100972.19;4974893;28;45559;-72
2022/12/31 09:38:44;;;;;;;;;3.67;2.00;;;;;24.34;38.96;100977.81;4973922;28;45827;-72
2022/12/31 09:41:28;;;;;;;;;3.67;1.67;;;;;24.30;39.16;100981.88;4948856;28;45351;-72
2022/12/31 09:44:19;;;;;;;;;1.67;1.67;;;;;24.32;39.28;100982.56;4949266;28;45364;-72
2022/12/31 09:47:05;;;;;;;;;4.00;4.00;;;;;24.31;39.63;100989.00;4952062;28;45497;-71
2022/12/31 09:50:18;;;;;;;;;2.00;2.00;;;;;24.28;38.88;100989.31;4951746;28;46663;-72
2022/12/31 09:52:49;;;;;;;;;4.00;3.67;;;;;24.31;39.25;100988.13;4957162;28;45587;-71
2022/12/31 09:55:31;;;;;;;;;3.00;1.33;;;;;24.34;39.36;101001.38;4950714;28;45483;-72
2022/12/31 09:58:26;;;;;;;;;2.33;2.33;;;;;24.35;39.47;101000.34;4946535;28;45394;-72
2022/12/31 10:01:12;;;;;;;;;3.00;3.00;;;;;24.32;39.17;100982.56;4948886;28;45543;-72
2022/12/31 10:04:25;;;;;;;;;4.00;2.00;;;;;24.39;39.28;100990.03;4951727;28;45436;-71
2022/12/31 10:07:08;;;;;;;;;1.00;1.00;;;;;24.39;39.39;100990.03;4911017;28;45780;-71
2022/12/31 10:09:58;;;;;;;;;5.67;3.00;;;;;24.40;39.14;100980.88;4926838;28;45403;-72
2022/12/31 10:12:41;;;;;;;;;2.00;2.00;;;;;24.39;39.26;100981.91;4900368;28;46345;-72
2022/12/31 10:15:51;;;;;;;;;2.00;2.00;;;;;24.43;39.36;100969.66;4947591;28;46446;-72
2022/12/31 10:18:49;;;;;;;;;4.67;2.67;;;;;24.45;39.28;100965.75;4942874;28;45538;-72
2022/12/31 10:21:15;;;;;;;;;6.00;3.00;;;;;24.46;39.40;100970.19;4916373;28;45514;-72
2022/12/31 10:24:03;;;;;;;;;4.67;3.00;;;;;24.37;39.23;100959.50;4939227;28;46219;-72
2022/12/31 10:26:47;;;;;;;;;4.00;3.00;;;;;24.45;39.00;100971.19;4932422;28;45585;-72
2022/12/31 10:29:40;;;;;;;;;4.00;2.00;;;;;24.44;39.26;100960.53;4931902;28;45481;-72
2022/12/31 10:32:18;;;;;;;;;2.33;2.33;;;;;24.43;39.34;100950.66;4921260;28;45524;-72
2022/12/31 10:35:13;;;;;;;;;3.00;3.00;;;;;24.43;39.29;100959.69;4930144;28;47205;-72
2022/12/31 10:37:51;;;;;;;;;2.33;1.67;;;;;24.42;39.48;100957.97;4943839;28;45593;-72
2022/12/31 10:40:48;;;;;;;;;2.33;2.33;;;;;24.41;39.13;100944.59;4973678;28;45526;-72
2022/12/31 10:43:31;;;;;;;;;3.33;3.00;;;;;24.39;39.15;100952.06;4971126;28;45614;-72
2022/12/31 10:46:12;;;;;;;;;3.00;2.00;;;;;24.39;39.48;100943.91;4972475;28;45310;-73
2022/12/31 10:49:15;;;;;;;;;4.33;4.33;;;;;24.39;39.33;100947.47;4973018;28;45872;-72
2022/12/31 10:52:16;;;;;;;;;3.00;3.00;;;;;24.39;39.37;100933.91;4925959;28;45355;-72
2022/12/31 10:54:59;;;;;;;;;5.00;4.00;;;;;24.38;39.36;100925.91;4941937;28;45528;-71
2022/12/31 10:57:45;;;;;;;;;5.00;4.67;;;;;24.38;39.08;100934.91;4915103;28;46290;-72
2022/12/31 11:00:21;;;;;;;;;4.67;4.00;;;;;24.39;39.30;100931.19;4952684;28;45582;-73
2022/12/31 11:03:26;;;;;;;;;4.00;4.00;;;;;24.37;39.37;100932.38;4940957;28;45500;-75
2022/12/31 11:06:13;;;;;;;;;5.33;3.67;;;;;24.42;39.08;100940.84;4929453;28;45466;-73
2022/12/31 11:09:02;;;;;;;;;5.00;4.00;;;;;24.43;39.20;100942.53;4936551;28;45447;-74
2022/12/31 11:11:43;;;;;;;;;4.33;2.67;;;;;24.44;39.30;100938.84;4932051;28;45474;-73
2022/12/31 11:14:18;;;;;;;;;3.00;2.67;;;;;24.42;39.59;100932.72;4936572;28;45678;-74
2022/12/31 11:17:15;;;;;;;;;2.33;2.33;;;;;24.47;39.14;100943.91;4934696;28;45326;-73
2022/12/31 11:20:02;;;;;;;;;3.00;3.00;;;;;24.48;39.24;100946.44;4931445;28;45573;-73
2022/12/31 11:22:57;;;;;;;;;2.67;2.67;;;;;24.48;39.24;100935.59;4953148;28;45866;-74
2022/12/31 11:25:32;;;;;;;;;1.33;1.33;;;;;24.49;39.27;100931.03;4946966;28;45454;-71
2022/12/31 11:28:26;;;;;;;;;1.67;1.67;;;;;24.48;39.23;100935.59;4938580;28;46081;-71
2022/12/31 11:31:09;;;;;;;;;3.00;2.33;;;;;24.47;39.22;100928.47;4969659;28;46744;-71
2022/12/31 11:34:00;;;;;;;;;2.00;2.00;;;;;24.47;39.19;100933.03;4962205;28;45793;-72
2022/12/31 11:36:53;;;;;;;;;3.00;3.00;;;;;24.47;39.13;100928.47;4985553;28;45460;-72
2022/12/31 11:39:41;;;;;;;;;2.33;2.33;;;;;24.47;39.39;100925.75;4969713;28;45441;-72
2022/12/31 11:42:13;;;;;;;;;2.00;2.00;;;;;24.40;39.04;100911.16;4969298;28;45363;-72
2022/12/31 11:44:57;;;;;;;;;2.00;2.00;;;;;24.51;39.02;100925.41;4976982;28;45422;-73
2022/12/31 11:47:46;;;;;;;;;5.00;4.33;;;;;24.53;39.23;100926.09;4972280;28;45415;-72
2022/12/31 11:50:11;;;;;;;;;3.00;3.00;;;;;24.54;39.45;100935.94;4968918;28;45719;-72
2022/12/31 11:52:53;;;;;;;;;4.00;1.67;;;;;24.55;39.25;100924.91;4969988;28;46027;-71
2022/12/31 11:55:42;;;;;;;;;2.00;2.00;;;;;24.56;39.31;100921.16;4962877;28;45522;-71
2022/12/31 11:58:27;;;;;;;;;5.00;5.00;;;;;24.54;39.22;100915.06;4960105;28;45483;-71
2022/12/31 12:01:17;;;;;;;;;3.00;3.00;;;;;24.51;39.54;100907.28;4976834;28;45438;-70
2022/12/31 12:03:43;;;;;;;;;4.00;3.00;;;;;24.40;39.04;100892.19;4972160;28;46352;-70
2022/12/31 12:06:14;;;;;;;;;3.00;3.00;;;;;24.44;39.35;100915.25;4987730;27;45655;-70
2022/12/31 12:08:40;;;;;;;;;5.00;3.33;;;;;24.43;39.08;100899.13;4968156;28;45525;-70
2022/12/31 12:11:12;;;;;;;;;5.00;3.33;;;;;24.50;39.36;100912.84;4963584;28;45418;-70